Time;durP1;ratioP1;P1;durP2;ratioP2;P2;SDS_P1;SDS_P2;PMS_P1;PMS_P2;Temp;Humidity;BMP_temperature;BMP_pressure;BME280_temperature;BME280_humidity;BME280_pressure;Samples;Min_cycle;Max_cycle;Signal;HPM_P1;HPM_P2
2022/08/16 00:00:33;;;;;;;15.03;10.55;;;;;;;21.97;66.74;99813.62;1686072;82;28233;-65
2022/08/16 00:03:00;;;;;;;15.72;11.25;;;;;;;21.96;66.76;99813.78;1693227;82;25705;-65
2022/08/16 00:05:28;;;;;;;45.78;12.58;;;;;;;21.97;66.88;99815.49;1684296;82;98767;-65
2022/08/16 00:07:55;;;;;;;25.95;11.78;;;;;;;21.95;66.91;99811.55;1691678;82;26046;-65
2022/08/16 00:10:26;;;;;;;20.32;10.85;;;;;;;21.92;66.92;99814.61;1677469;82;98845;-65
2022/08/16 00:12:52;;;;;;;16.55;10.75;;;;;;;21.92;66.99;99810.52;1686588;83;28020;-65
2022/08/16 00:15:29;;;;;;;17.35;10.78;;;;;;;21.93;67.04;99810.00;1684137;82;25805;-65
2022/08/16 00:17:55;;;;;;;19.02;11.50;;;;;;;21.90;67.06;99812.55;1679766;82;98799;-66
2022/08/16 00:20:22;;;;;;;18.10;11.25;;;;;;;21.88;67.16;99807.75;1679221;82;26778;-66
2022/08/16 00:22:51;;;;;;;15.03;10.88;;;;;;;21.88;67.13;99810.48;1688615;82;98872;-66
2022/08/16 00:25:21;;;;;;;16.02;10.95;;;;;;;21.85;67.12;99812.16;1684623;82;27517;-66
2022/08/16 00:27:48;;;;;;;19.00;11.70;;;;;;;21.82;67.24;99807.02;1743758;82;98978;-64
2022/08/16 00:30:16;;;;;;;22.00;11.78;;;;;;;21.82;67.33;99801.57;1744819;82;25675;-65
2022/08/16 00:32:45;;;;;;;15.30;11.20;;;;;;;21.81;67.32;99803.95;1745144;82;26067;-65
2022/08/16 00:35:17;;;;;;;16.73;11.65;;;;;;;21.76;67.35;99794.53;1743120;82;98892;-66
2022/08/16 00:37:45;;;;;;;16.45;11.63;;;;;;;21.79;67.42;99812.80;1745024;82;27464;-66
2022/08/16 00:40:20;;;;;;;15.93;11.10;;;;;;;21.76;67.44;99814.98;1743487;82;99112;-65
2022/08/16 00:42:47;;;;;;;16.07;10.90;;;;;;;21.75;67.51;99809.18;1744613;82;25687;-66
2022/08/16 00:45:34;;;;;;;18.82;11.57;;;;;;;21.73;67.55;99814.80;1744432;82;26157;-66
2022/08/16 00:48:05;;;;;;;16.45;12.00;;;;;;;21.72;67.70;99813.08;1743370;82;98635;-64
2022/08/16 00:50:35;;;;;;;16.17;11.97;;;;;;;21.69;67.73;99823.80;1744785;82;26920;-63
2022/08/16 00:53:05;;;;;;;21.93;13.20;;;;;;;21.68;67.75;99816.63;1743683;81;98867;-63
2022/08/16 00:55:30;;;;;;;15.85;12.00;;;;;;;21.65;67.75;99814.73;1744464;82;25649;-65
2022/08/16 00:57:57;;;;;;;20.90;12.03;;;;;;;21.61;67.89;99818.78;1743236;82;99108;-64
2022/08/16 01:00:27;;;;;;;18.90;13.00;;;;;;;21.59;67.91;99819.45;1744981;82;25704;-66
2022/08/16 01:02:54;;;;;;;19.07;12.58;;;;;;;21.56;67.99;99824.70;1744782;82;27446;-65
2022/08/16 01:05:20;;;;;;;16.87;12.65;;;;;;;21.54;68.06;99824.52;1742946;81;98833;-65
2022/08/16 01:07:46;;;;;;;17.05;12.70;;;;;;;21.51;68.11;99827.55;1744715;82;25963;-65
2022/08/16 01:10:12;;;;;;;20.12;11.93;;;;;;;21.49;68.15;99833.67;1743246;81;99123;-65
2022/08/16 01:12:37;;;;;;;15.48;12.45;;;;;;;21.49;68.19;99844.58;1745122;82;25204;-65
2022/08/16 01:15:05;;;;;;;20.57;11.95;;;;;;;21.49;68.25;99845.94;1744744;82;27497;-65
2022/08/16 01:17:33;;;;;;;20.12;12.70;;;;;;;21.47;68.24;99839.78;1743532;81;98134;-65
2022/08/16 01:20:04;;;;;;;17.80;11.30;;;;;;;21.44;68.33;99840.09;1742690;80;25786;-65
2022/08/16 01:22:54;;;;;;;16.25;12.73;;;;;;;21.42;68.41;99838.89;1739558;80;98934;-65
2022/08/16 01:25:28;;;;;;;15.48;11.55;;;;;;;21.40;68.48;99845.00;1733948;80;25778;-65
2022/08/16 01:27:58;;;;;;;16.73;12.05;;;;;;;21.27;68.76;99824.08;1732211;80;98984;-65
2022/08/16 01:30:37;;;;;;;16.80;11.65;;;;;;;21.27;68.76;99824.08;1749498;80;25783;-65
2022/08/16 01:33:05;;;;;;;17.67;11.65;;;;;;;21.38;68.63;99841.57;1739740;80;25778;-65
2022/08/16 01:35:47;;;;;;;17.40;12.03;;;;;;;21.36;68.60;99842.23;1742995;80;98884;-65
2022/08/16 01:38:33;;;;;;;20.37;12.30;;;;;;;21.35;68.60;99837.80;1699732;80;25825;-65
2022/08/16 01:41:07;;;;;;;17.90;12.15;;;;;;;21.18;68.64;99812.20;1734414;80;98934;-65
2022/08/16 01:43:36;;;;;;;14.73;12.50;;;;;;;21.27;68.70;99830.89;1734436;80;26488;-65
2022/08/16 01:46:07;;;;;;;14.40;11.28;;;;;;;21.24;68.71;99838.02;1734543;80;99180;-65
2022/08/16 01:48:33;;;;;;;17.55;12.35;;;;;;;21.22;68.77;99842.77;1735239;80;26436;-65
2022/08/16 01:51:02;;;;;;;18.05;12.58;;;;;;;21.22;68.84;99845.48;1734589;80;26260;-65
2022/08/16 01:53:29;;;;;;;23.50;11.83;;;;;;;21.23;68.89;99834.94;1735461;80;98862;-66
2022/08/16 01:55:55;;;;;;;19.77;11.48;;;;;;;21.21;68.86;99837.78;1734354;80;25264;-66
2022/08/16 01:58:22;;;;;;;17.75;12.43;;;;;;;21.20;68.88;99839.30;1735274;80;99133;-65
2022/08/16 02:00:49;;;;;;;21.82;13.00;;;;;;;21.20;68.96;99839.30;1729519;80;26874;-65
2022/08/16 02:03:15;;;;;;;23.25;12.47;;;;;;;21.18;68.91;99838.60;1729950;80;26244;-65
2022/08/16 02:05:41;;;;;;;17.35;11.88;;;;;;;21.16;68.97;99837.39;1735214;80;98931;-65
2022/08/16 02:08:08;;;;;;;18.60;12.05;;;;;;;21.16;69.02;99844.20;1752436;79;26113;-65
2022/08/16 02:10:36;;;;;;;19.15;12.35;;;;;;;21.12;68.67;99828.31;1745169;79;98881;-66
2022/08/16 02:13:06;;;;;;;18.32;12.03;;;;;;;21.11;68.97;99831.55;1745888;79;26140;-66
2022/08/16 02:15:35;;;;;;;19.00;11.70;;;;;;;20.98;68.96;99818.29;1748478;79;25797;-65
2022/08/16 02:18:02;;;;;;;17.60;12.65;;;;;;;21.00;69.01;99830.39;1749072;79;98737;-65
2022/08/16 02:20:33;;;;;;;20.50;12.30;;;;;;;20.99;69.05;99829.54;1756166;79;25936;-66
2022/08/16 02:23:00;;;;;;;;;;;;;;;20.99;69.13;99832.27;1747813;79;98950;-66
2022/08/16 02:25:28;;;;;;;22.02;12.93;;;;;;;20.98;69.24;99835.14;1745119;80;26083;-66
2022/08/16 02:27:54;;;;;;;19.23;12.98;;;;;;;20.92;69.34;99832.52;1736777;80;98256;-65
2022/08/16 02:30:26;;;;;;;15.90;11.35;;;;;;;20.78;69.54;99804.47;1739670;80;29458;-65
2022/08/16 02:32:53;;;;;;;18.82;12.10;;;;;;;20.78;69.54;99804.47;1742404;80;26483;-66
2022/08/16 02:35:21;;;;;;;19.62;12.47;;;;;;;20.89;69.15;99830.10;1738182;80;98901;-66
2022/08/16 02:37:47;;;;;;;17.80;12.28;;;;;;;20.88;69.23;99831.61;1746865;80;26085;-65
2022/08/16 02:40:15;;;;;;;19.55;11.83;;;;;;;20.88;69.23;99831.61;1752835;80;99188;-64
2022/08/16 02:42:45;;;;;;;18.23;11.85;;;;;;;20.81;69.17;99830.51;1735739;80;28023;-67
2022/08/16 02:45:11;;;;;;;17.42;12.73;;;;;;;20.84;69.25;99837.02;1739721;80;25856;-65
2022/08/16 02:47:37;;;;;;;16.23;11.90;;;;;;;20.67;69.51;99801.44;1730118;80;98948;-67
2022/08/16 02:50:05;;;;;;;17.27;12.82;;;;;;;20.67;69.51;99801.44;1734871;80;26106;-67
2022/08/16 02:52:31;;;;;;;16.25;12.30;;;;;;;20.77;69.13;99831.34;1738542;80;98971;-65
2022/08/16 02:54:58;;;;;;;22.07;13.40;;;;;;;20.77;69.13;99831.34;1736167;80;27477;-65
2022/08/16 02:57:24;;;;;;;17.77;12.05;;;;;;;20.78;69.37;99829.48;1732542;80;27240;-65
2022/08/16 02:59:49;;;;;;;18.40;12.13;;;;;;;20.65;69.30;99803.45;1739966;80;99244;-65
2022/08/16 03:02:17;;;;;;;18.12;13.45;;;;;;;20.79;69.40;99832.05;1736022;80;25908;-64
2022/08/16 03:04:43;;;;;;;21.68;11.95;;;;;;;20.78;69.43;99825.39;1733390;79;98989;-64
2022/08/16 03:07:10;;;;;;;15.95;11.95;;;;;;;20.69;69.49;99815.77;1732227;80;28012;-65
2022/08/16 03:09:37;;;;;;;18.05;12.93;;;;;;;20.76;69.42;99836.44;1732075;80;25757;-65
2022/08/16 03:12:05;;;;;;;15.53;11.48;;;;;;;20.71;69.35;99835.53;1730572;80;98760;-64
2022/08/16 03:14:32;;;;;;;18.10;11.70;;;;;;;20.71;69.35;99835.53;1734076;80;26094;-65
2022/08/16 03:16:59;;;;;;;17.77;12.18;;;;;;;20.63;69.59;99827.26;1731772;80;99271;-65
2022/08/16 03:19:32;;;;;;;19.23;12.07;;;;;;;20.76;69.70;99837.80;1736336;80;27397;-67
2022/08/16 03:21:58;;;;;;;18.40;12.58;;;;;;;20.78;69.71;99836.29;1743093;80;99120;-66
2022/08/16 03:24:23;;;;;;;21.77;13.10;;;;;;;20.78;69.65;99843.95;1743654;80;25794;-64
2022/08/16 03:26:50;;;;;;;22.67;13.32;;;;;;;20.77;69.69;99842.75;1746644;80;26098;-65
2022/08/16 03:29:15;;;;;;;18.62;12.82;;;;;;;20.76;69.77;99834.22;1740710;80;98880;-64
2022/08/16 03:31:41;;;;;;;20.75;12.37;;;;;;;20.78;69.82;99831.70;1745197;80;27527;-65
2022/08/16 03:34:07;;;;;;;20.15;12.75;;;;;;;20.80;69.77;99840.58;1736373;80;98985;-66
2022/08/16 03:36:33;;;;;;;19.77;11.80;;;;;;;20.76;69.82;99844.61;1745132;80;25899;-65
2022/08/16 03:38:59;;;;;;;23.32;12.58;;;;;;;20.74;69.87;99849.35;1743217;80;26511;-67
2022/08/16 03:41:26;;;;;;;20.68;13.35;;;;;;;20.72;69.82;99848.64;1742366;80;98896;-65
2022/08/16 03:43:55;;;;;;;19.42;12.88;;;;;;;20.71;69.93;99851.02;1746743;80;27496;-65
2022/08/16 03:46:22;;;;;;;18.23;12.77;;;;;;;20.71;69.96;99855.95;1736929;80;98916;-65
2022/08/16 03:48:48;;;;;;;22.22;12.93;;;;;;;20.72;69.96;99859.54;1738279;80;25822;-65
2022/08/16 03:51:15;;;;;;;21.15;13.38;;;;;;;20.70;69.96;99856.97;1737926;80;26926;-65
2022/08/16 03:53:42;;;;;;;23.67;13.22;;;;;;;20.72;70.02;99870.44;1743820;80;98842;-65
2022/08/16 03:56:10;;;;;;;22.82;12.73;;;;;;;20.72;69.98;99873.16;1738138;80;27362;-65
2022/08/16 03:58:37;;;;;;;21.97;13.28;;;;;;;20.72;69.92;99870.44;1734001;80;98826;-65
2022/08/16 04:01:04;;;;;;;19.60;13.65;;;;;;;20.74;70.08;99875.23;1739301;80;26433;-65
2022/08/16 04:03:30;;;;;;;21.02;13.15;;;;;;;20.62;70.07;99856.00;1743144;80;26000;-65
2022/08/16 04:05:56;;;;;;;20.37;14.25;;;;;;;20.73;70.06;99885.77;1736176;80;99097;-65
2022/08/16 04:08:22;;;;;;;22.52;13.75;;;;;;;20.59;70.07;99869.41;1739692;80;27537;-65
2022/08/16 04:10:50;;;;;;;20.45;14.03;;;;;;;20.73;70.11;99902.11;1741709;80;99004;-67
2022/08/16 04:13:17;;;;;;;17.35;13.22;;;;;;;20.74;70.11;99905.19;1738991;80;26510;-65
2022/08/16 04:15:43;;;;;;;18.50;13.13;;;;;;;20.76;70.12;99904.53;1749898;80;99874;-64
2022/08/16 04:18:09;;;;;;;18.00;13.50;;;;;;;20.77;70.12;99907.61;1743756;80;25870;-66
2022/08/16 04:20:35;;;;;;;22.90;14.30;;;;;;;20.78;70.10;99907.11;1738262;80;27433;-65
2022/08/16 04:23:01;;;;;;;19.40;13.88;;;;;;;20.80;70.09;99911.90;1740220;80;98893;-65
2022/08/16 04:25:28;;;;;;;24.12;14.25;;;;;;;20.62;70.11;99880.00;1745304;80;25786;-65
2022/08/16 04:27:55;;;;;;;24.23;14.20;;;;;;;20.83;70.06;99917.02;1738522;80;99123;-65
2022/08/16 04:30:23;;;;;;;23.85;14.75;;;;;;;20.82;70.48;99927.05;1742130;80;25753;-65
2022/08/16 04:32:49;;;;;;;21.25;13.85;;;;;;;20.68;70.10;99909.36;1740095;80;28097;-66
2022/08/16 04:35:19;;;;;;;21.10;14.00;;;;;;;20.68;70.10;99909.36;1735081;80;98974;-66
2022/08/16 04:37:47;;;;;;;21.10;14.68;;;;;;;20.84;70.11;99932.35;1743003;80;25969;-66
2022/08/16 04:40:14;;;;;;;22.22;14.75;;;;;;;20.84;70.09;99932.35;1737833;80;99131;-66
2022/08/16 04:42:41;;;;;;;22.40;14.03;;;;;;;20.74;70.12;99917.44;1739158;80;25819;-66
2022/08/16 04:45:12;;;;;;;20.92;14.13;;;;;;;20.85;70.10;99939.52;1735819;80;28350;-66
2022/08/16 04:47:40;;;;;;;21.37;13.30;;;;;;;20.82;70.05;99932.50;1739008;80;98968;-67
2022/08/16 04:50:16;;;;;;;19.00;14.03;;;;;;;20.84;70.24;99935.94;1745946;80;25987;-66
2022/08/16 04:52:48;;;;;;;20.70;13.65;;;;;;;20.83;70.06;99931.49;1734872;80;99023;-66
2022/08/16 04:55:18;;;;;;;22.35;13.65;;;;;;;20.77;70.39;99936.20;1751537;80;26220;-65
2022/08/16 04:57:46;;;;;;;;;;;;;;;20.77;70.39;99936.20;1742069;80;99042;-66
2022/08/16 05:00:23;;;;;;;22.15;13.35;;;;;;;20.63;69.97;99918.48;1746680;80;25767;-65
2022/08/16 05:02:53;;;;;;;20.48;14.15;;;;;;;20.63;69.97;99918.48;1739002;80;25725;-65
2022/08/16 05:05:21;;;;;;;23.57;13.98;;;;;;;20.81;69.93;99951.21;1742413;80;98792;-66
2022/08/16 05:07:47;;;;;;;18.80;13.72;;;;;;;20.81;69.93;99951.21;1745933;79;25806;-66
2022/08/16 05:10:14;;;;;;;23.22;14.38;;;;;;;20.85;70.29;99958.08;1752267;79;99058;-67
2022/08/16 05:12:40;;;;;;;21.75;14.23;;;;;;;20.76;70.31;99938.58;1755714;79;25789;-66
2022/08/16 05:15:08;;;;;;;23.40;15.18;;;;;;;20.90;70.10;99963.94;1745084;79;25888;-65
2022/08/16 05:17:36;;;;;;;22.87;15.18;;;;;;;20.92;70.33;99959.20;1756375;79;98931;-65
2022/08/16 05:20:07;;;;;;;22.32;14.07;;;;;;;20.96;70.07;99958.40;1742465;79;25772;-65
2022/08/16 05:22:35;;;;;;;17.82;14.38;;;;;;;20.97;70.33;99959.61;1754551;79;98951;-65
2022/08/16 05:25:03;;;;;;;19.52;14.63;;;;;;;20.98;70.35;99953.16;1757718;79;26612;-67
2022/08/16 05:27:28;;;;;;;22.85;15.08;;;;;;;21.00;70.39;99961.17;1759832;79;25841;-68
2022/08/16 05:29:54;;;;;;;24.30;14.20;;;;;;;21.02;70.40;99961.38;1753199;79;99203;-66
2022/08/16 05:32:20;;;;;;;22.82;15.15;;;;;;;21.05;70.36;99965.67;1754441;79;25753;-65
2022/08/16 05:34:46;;;;;;;20.60;13.98;;;;;;;21.06;70.37;99960.58;1756569;79;98809;-67
2022/08/16 05:37:12;;;;;;;20.30;14.20;;;;;;;21.11;70.33;99960.12;1742572;79;25749;-67
2022/08/16 05:39:38;;;;;;;21.85;13.60;;;;;;;21.11;70.30;99960.12;1748598;79;26473;-65
2022/08/16 05:42:05;;;;;;;18.17;13.48;;;;;;;21.11;70.27;99958.77;1756446;79;98580;-65
2022/08/16 05:44:31;;;;;;;21.17;14.05;;;;;;;21.15;70.28;99957.45;1748646;79;25818;-65
2022/08/16 05:47:00;;;;;;;17.40;14.38;;;;;;;21.18;70.22;99958.52;1743728;79;98949;-65
2022/08/16 05:49:29;;;;;;;18.52;14.03;;;;;;;21.21;70.19;99955.48;1745056;79;26458;-65
2022/08/16 05:51:55;;;;;;;28.17;15.43;;;;;;;21.22;70.14;99965.41;1745386;79;98995;-65
2022/08/16 05:54:22;;;;;;;22.52;15.58;;;;;;;21.26;70.18;99973.64;1744183;79;26625;-66
2022/08/16 05:56:48;;;;;;;24.72;15.35;;;;;;;21.30;70.15;99970.47;1751411;79;25889;-66
2022/08/16 05:59:17;;;;;;;23.75;16.30;;;;;;;21.35;70.16;99970.01;1746187;79;124814;-60
2022/08/16 06:01:44;;;;;;;23.40;15.95;;;;;;;21.41;70.14;99974.00;1754552;79;25875;-60
2022/08/16 06:04:12;;;;;;;23.07;15.28;;;;;;;21.46;70.11;99969.80;1744588;79;98994;-61
2022/08/16 06:06:40;;;;;;;18.67;14.63;;;;;;;21.52;70.12;99968.34;1751731;79;26557;-62
2022/08/16 06:09:06;;;;;;;23.50;15.98;;;;;;;21.60;70.14;99969.28;1749608;79;25778;-61
2022/08/16 06:11:32;;;;;;;21.15;14.15;;;;;;;21.70;69.95;99968.72;1743915;79;98802;-60
2022/08/16 06:13:58;;;;;;;21.35;15.48;;;;;;;21.75;69.99;99967.39;1746823;79;25862;-61
2022/08/16 06:16:25;;;;;;;26.95;15.95;;;;;;;21.77;69.90;99970.83;1745888;79;99157;-61
2022/08/16 06:18:50;;;;;;;30.70;16.42;;;;;;;21.82;69.92;99967.98;1742215;79;26833;-62
2022/08/16 06:21:16;;;;;;;21.87;15.72;;;;;;;21.88;69.88;99967.88;1745375;79;25793;-62
2022/08/16 06:23:42;;;;;;;27.52;16.05;;;;;;;21.94;69.88;99972.20;1744235;79;99958;-62
2022/08/16 06:26:08;;;;;;;27.13;15.05;;;;;;;22.02;69.82;99968.22;1749908;79;26461;-61
2022/08/16 06:28:34;;;;;;;26.82;15.38;;;;;;;22.09;69.72;99966.23;1742644;79;99003;-61
2022/08/16 06:31:01;;;;;;;19.65;14.78;;;;;;;22.16;69.66;99973.63;1751050;79;26164;-61
2022/08/16 06:33:28;;;;;;;21.48;14.55;;;;;;;22.26;69.61;99977.64;1752365;79;25753;-61
2022/08/16 06:35:55;;;;;;;22.10;14.98;;;;;;;22.35;69.52;99987.11;1749556;79;98845;-61
2022/08/16 06:38:22;;;;;;;31.10;16.50;;;;;;;22.44;69.41;99985.81;1756323;79;26089;-61
2022/08/16 06:40:48;;;;;;;25.20;13.93;;;;;;;22.56;69.36;99982.67;1742539;79;98966;-61
2022/08/16 06:43:14;;;;;;;25.48;13.83;;;;;;;22.66;69.23;99981.20;1740478;79;26744;-60
2022/08/16 06:45:42;;;;;;;21.42;13.65;;;;;;;22.76;69.10;99987.93;1742208;79;99672;-59
2022/08/16 06:48:09;;;;;;;21.40;13.78;;;;;;;22.84;68.98;99979.81;1739615;79;27553;-61
2022/08/16 06:50:35;;;;;;;19.30;12.70;;;;;;;22.94;68.88;99991.50;1751754;79;25784;-62
2022/08/16 06:53:03;;;;;;;19.80;13.83;;;;;;;23.01;68.67;99979.41;1744024;79;99283;-61
2022/08/16 06:55:30;;;;;;;20.55;13.40;;;;;;;23.07;68.52;99980.98;1740176;79;26697;-63
2022/08/16 06:57:56;;;;;;;24.75;12.82;;;;;;;23.16;68.33;99976.41;1749850;79;98967;-62
2022/08/16 07:00:23;;;;;;;16.95;12.30;;;;;;;23.28;68.23;99979.20;1756556;79;28183;-62
2022/08/16 07:02:52;;;;;;;16.52;12.03;;;;;;;23.41;67.93;99985.04;1744703;79;26655;-63
2022/08/16 07:05:20;;;;;;;18.98;12.65;;;;;;;23.55;67.72;99989.05;1747752;79;98092;-63
2022/08/16 07:07:51;;;;;;;18.85;12.25;;;;;;;23.62;67.50;99988.23;1745423;79;26059;-64
2022/08/16 07:10:18;;;;;;;19.85;13.58;;;;;;;23.69;67.25;99988.93;1735631;80;99118;-62
2022/08/16 07:12:44;;;;;;;14.87;12.75;;;;;;;23.70;66.85;99983.29;1748881;80;28304;-63
2022/08/16 07:15:10;;;;;;;20.85;12.18;;;;;;;23.70;66.72;99982.44;1743392;80;25994;-64
2022/08/16 07:17:43;;;;;;;17.73;13.13;;;;;;;23.66;66.60;99983.28;1739264;80;98809;-63
2022/08/16 07:20:12;;;;;;;22.25;12.82;;;;;;;23.72;66.45;99996.30;1741445;80;26316;-63
2022/08/16 07:22:40;;;;;;;18.45;12.45;;;;;;;23.70;66.23;99990.64;1738682;80;99229;-63
2022/08/16 07:25:13;;;;;;;16.87;11.12;;;;;;;23.69;66.06;99991.16;1735961;80;28217;-62
2022/08/16 07:27:40;;;;;;;21.85;11.68;;;;;;;23.69;65.93;99995.26;1739243;80;25860;-63
2022/08/16 07:30:11;;;;;;;22.20;13.65;;;;;;;23.72;65.78;100005.02;1742388;80;98672;-63
2022/08/16 07:32:37;;;;;;;17.87;12.33;;;;;;;23.74;65.68;100005.19;1738752;80;26042;-63
2022/08/16 07:35:05;;;;;;;18.48;12.40;;;;;;;23.79;65.58;100006.06;1739367;80;99001;-64
2022/08/16 07:37:31;;;;;;;27.48;13.80;;;;;;;23.86;65.44;100005.73;1754809;80;27562;-63
2022/08/16 07:39:57;;;;;;;17.30;12.15;;;;;;;23.92;65.29;100008.66;1749191;80;99144;-63
2022/08/16 07:42:23;;;;;;;19.87;12.43;;;;;;;23.96;65.13;99995.50;1752784;80;25831;-64
2022/08/16 07:44:49;;;;;;;18.65;12.47;;;;;;;24.02;64.96;100000.30;1736418;80;26775;-63
2022/08/16 07:47:18;;;;;;;22.22;10.93;;;;;;;24.06;64.66;100000.81;1737725;80;99036;-64
2022/08/16 07:49:44;;;;;;;17.55;10.60;;;;;;;24.11;64.52;100001.17;1742427;80;27944;-63
2022/08/16 07:52:10;;;;;;;15.20;10.18;;;;;;;24.18;64.35;100003.06;1741434;80;99179;-63
2022/08/16 07:54:36;;;;;;;15.85;10.80;;;;;;;24.26;64.19;100011.31;1737699;80;25795;-63
2022/08/16 07:57:01;;;;;;;16.75;9.60;;;;;;;24.31;63.97;100003.10;1695593;82;26542;-62
2022/08/16 07:59:27;;;;;;;15.35;10.55;;;;;;;24.33;63.73;99996.42;1690804;82;98975;-63
2022/08/16 08:01:54;;;;;;;12.43;10.00;;;;;;;24.42;63.55;99997.28;1739698;80;27499;-63
2022/08/16 08:04:20;;;;;;;13.08;10.48;;;;;;;24.51;63.42;100000.37;1734056;80;98997;-63
2022/08/16 08:06:46;;;;;;;15.70;10.88;;;;;;;24.60;63.26;99999.34;1732569;80;26241;-62
2022/08/16 08:09:12;;;;;;;17.67;11.08;;;;;;;24.69;63.19;100004.30;1731651;80;26377;-62
2022/08/16 08:11:38;;;;;;;17.42;9.48;;;;;;;24.78;63.08;100006.86;1741813;80;98930;-62
2022/08/16 08:14:04;;;;;;;14.80;10.55;;;;;;;24.86;62.93;100004.62;1752715;80;28044;-62
2022/08/16 08:16:32;;;;;;;17.55;9.50;;;;;;;25.00;62.74;100008.56;1734140;80;99225;-63
2022/08/16 08:18:59;;;;;;;29.80;10.38;;;;;;;25.11;62.45;100012.31;1749168;80;25760;-63
2022/08/16 08:21:25;;;;;;;15.40;10.68;;;;;;;25.22;62.07;100011.94;1745241;80;26047;-62
2022/08/16 08:23:52;;;;;;;16.25;9.35;;;;;;;25.31;61.82;100011.39;1743923;80;99706;-62
2022/08/16 08:26:18;;;;;;;16.75;10.50;;;;;;;25.38;61.71;100002.80;1733337;80;27424;-62
2022/08/16 08:28:45;;;;;;;13.40;9.90;;;;;;;25.41;61.52;100003.30;1742078;80;99062;-61
2022/08/16 08:31:10;;;;;;;17.15;10.15;;;;;;;25.44;61.28;100008.43;1741476;80;25857;-62
2022/08/16 08:33:37;;;;;;;17.37;9.18;;;;;;;25.49;61.11;100012.87;1734877;80;26666;-62
2022/08/16 08:36:06;;;;;;;11.53;9.68;;;;;;;25.55;61.06;100014.90;1740752;80;98803;-60
2022/08/16 08:38:34;;;;;;;12.37;9.10;;;;;;;25.68;60.55;100020.37;1741928;80;27395;-62
2022/08/16 08:41:01;;;;;;;13.58;8.95;;;;;;;25.73;60.23;100028.92;1738904;80;98240;-62
2022/08/16 08:43:27;;;;;;;13.03;8.63;;;;;;;25.74;59.87;100026.52;1744169;80;25718;-62
2022/08/16 08:45:54;;;;;;;19.07;8.83;;;;;;;25.80;59.76;100027.17;1735784;80;99179;-61
2022/08/16 08:48:21;;;;;;;14.78;9.95;;;;;;;25.86;59.49;100033.31;1742125;80;25765;-61
2022/08/16 08:50:48;;;;;;;16.90;10.00;;;;;;;25.92;59.29;100035.34;1741192;80;27356;-62
2022/08/16 08:53:15;;;;;;;13.88;9.05;;;;;;;25.94;59.13;100033.79;1741859;80;99091;-62
2022/08/16 08:55:41;;;;;;;16.32;9.83;;;;;;;25.96;59.07;100037.21;1733449;80;25916;-61
2022/08/16 08:58:07;;;;;;;9.90;8.85;;;;;;;25.97;58.76;100038.92;1737871;80;99501;-62
2022/08/16 09:00:37;;;;;;;15.55;10.03;;;;;;;25.95;58.63;100044.59;1747072;80;26217;-62
2022/08/16 09:03:03;;;;;;;13.68;9.30;;;;;;;25.96;58.60;100042.70;1744173;80;27463;-62
2022/08/16 09:05:29;;;;;;;17.82;9.48;;;;;;;25.99;58.63;100043.20;1735988;80;99249;-61
2022/08/16 09:07:55;;;;;;;15.85;9.65;;;;;;;26.10;58.34;100054.27;1738481;80;25932;-61
2022/08/16 09:10:21;;;;;;;14.70;9.18;;;;;;;26.17;58.21;100046.48;1729310;81;99036;-62
2022/08/16 09:12:48;;;;;;;12.33;9.65;;;;;;;26.18;58.13;100050.09;1720288;82;26006;-61
2022/08/16 09:15:16;;;;;;;16.93;10.05;;;;;;;26.20;57.91;100061.75;1718782;82;27442;-61
2022/08/16 09:17:43;;;;;;;11.25;8.75;;;;;;;26.24;57.80;100066.37;1713840;82;98933;-62
2022/08/16 09:20:13;;;;;;;16.57;8.98;;;;;;;26.24;57.82;100058.13;1717814;82;25695;-62
2022/08/16 09:22:40;;;;;;;15.75;9.30;;;;;;;26.30;57.76;100058.77;1723686;82;98880;-62
2022/08/16 09:25:08;;;;;;;16.77;9.28;;;;;;;26.38;57.70;100058.75;1729947;82;26409;-61
2022/08/16 09:27:35;;;;;;;12.85;8.85;;;;;;;26.48;57.41;100067.61;1718767;82;27351;-61
2022/08/16 09:30:00;;;;;;;12.80;9.20;;;;;;;26.47;57.20;100055.75;1725334;82;98810;-61
2022/08/16 09:32:29;;;;;;;12.10;8.53;;;;;;;26.49;57.21;100050.08;1722061;81;25820;-62
2022/08/16 09:34:55;;;;;;;11.22;8.93;;;;;;;26.50;57.18;100061.41;1721293;82;98838;-61
2022/08/16 09:37:20;;;;;;;15.85;10.18;;;;;;;26.59;57.04;100061.68;1724144;82;25726;-61
2022/08/16 09:39:46;;;;;;;12.03;9.25;;;;;;;26.65;56.90;100057.34;1721907;81;99109;-64
2022/08/16 09:42:14;;;;;;;10.90;8.70;;;;;;;26.71;56.54;100063.48;1724537;81;27841;-64
2022/08/16 09:44:41;;;;;;;13.78;8.50;;;;;;;26.71;56.56;100048.36;1726040;82;25752;-64
2022/08/16 09:47:08;;;;;;;16.05;8.48;;;;;;;26.76;56.53;100050.03;1722066;82;98951;-64
2022/08/16 09:49:35;;;;;;;15.75;8.25;;;;;;;26.84;56.54;100056.83;1728614;82;25875;-63
2022/08/16 09:52:01;;;;;;;10.40;8.58;;;;;;;26.96;56.29;100058.61;1726159;82;98978;-64
2022/08/16 09:54:27;;;;;;;19.00;9.90;;;;;;;26.96;56.11;100053.97;1726795;82;25936;-64
2022/08/16 09:56:53;;;;;;;16.73;8.75;;;;;;;26.99;56.02;100055.52;1734026;81;25816;-64
2022/08/16 09:59:22;;;;;;;12.50;8.40;;;;;;;27.07;55.84;100054.06;1730630;81;98884;-64
2022/08/16 10:01:49;;;;;;;13.32;7.87;;;;;;;27.14;55.75;100060.53;1736127;82;25754;-64
2022/08/16 10:04:16;;;;;;;19.45;9.43;;;;;;;27.14;55.48;100060.53;1726232;82;98963;-64
2022/08/16 10:06:43;;;;;;;12.75;7.33;;;;;;;27.10;55.49;100065.55;1724384;82;26244;-64
2022/08/16 10:09:11;;;;;;;29.05;8.08;;;;;;;27.10;55.26;100060.57;1727059;79;25753;-64
2022/08/16 10:14:25;;;;;;;14.55;8.70;;;;;;;27.20;54.98;100056.17;1751587;79;25738;-64
2022/08/16 10:16:52;;;;;;;8.80;7.62;;;;;;;27.23;54.89;100062.16;1755262;79;98749;-64
2022/08/16 10:19:18;;;;;;;13.08;8.78;;;;;;;27.29;54.78;100057.27;1754099;79;26015;-63
2022/08/16 10:21:45;;;;;;;12.07;7.70;;;;;;;27.32;54.67;100061.02;1749024;79;25757;-63
2022/08/16 10:24:11;;;;;;;10.23;8.50;;;;;;;27.35;54.77;100059.80;1742211;79;98729;-65
2022/08/16 10:26:37;;;;;;;11.73;7.97;;;;;;;27.42;54.71;100065.73;1743408;79;26469;-64
2022/08/16 10:29:05;;;;;;;12.88;7.45;;;;;;;27.51;54.64;100059.61;1734750;79;98948;-64
2022/08/16 10:31:32;;;;;;;15.50;8.43;;;;;;;27.58;54.39;100062.45;1744786;79;26434;-63
2022/08/16 10:34:00;;;;;;;10.53;7.90;;;;;;;27.63;54.23;100061.39;1743138;79;98985;-63
2022/08/16 10:36:27;;;;;;;12.58;8.70;;;;;;;27.69;54.06;100062.00;1737173;79;26231;-65
2022/08/16 10:38:53;;;;;;;12.18;8.48;;;;;;;27.73;53.49;100060.58;1742894;79;25295;-65
2022/08/16 10:41:19;;;;;;;11.20;8.13;;;;;;;27.79;53.30;100065.31;1749031;79;99026;-66
2022/08/16 10:43:46;;;;;;;10.23;7.22;;;;;;;27.84;52.98;100056.48;1755702;79;25966;-65
2022/08/16 10:46:14;;;;;;;9.68;7.30;;;;;;;27.88;52.88;100057.28;1751390;79;99085;-65
2022/08/16 10:48:43;;;;;;;19.05;7.40;;;;;;;27.95;52.32;100052.70;1743297;79;26039;-63
2022/08/16 10:51:10;;;;;;;13.00;7.60;;;;;;;27.96;52.18;100056.31;1743712;79;26324;-64
2022/08/16 10:53:37;;;;;;;11.95;6.87;;;;;;;28.05;51.86;100060.14;1741249;79;98856;-64
2022/08/16 10:56:07;;;;;;;8.60;6.78;;;;;;;28.14;51.70;100060.87;1746787;79;25873;-65
2022/08/16 10:58:35;;;;;;;10.43;6.83;;;;;;;28.22;51.45;100059.91;1754187;79;97992;-64
2022/08/16 11:01:05;;;;;;;9.83;6.78;;;;;;;28.34;51.39;100054.24;1740534;79;26834;-64
2022/08/16 11:03:32;;;;;;;14.73;6.72;;;;;;;28.45;50.96;100055.11;1747600;79;25793;-65
2022/08/16 11:05:58;;;;;;;8.60;5.90;;;;;;;28.61;51.06;100053.44;1742648;79;98733;-65
2022/08/16 11:08:25;;;;;;;9.10;6.37;;;;;;;28.83;50.70;100054.83;1752878;79;25787;-65
2022/08/16 11:10:51;;;;;;;7.65;6.37;;;;;;;28.91;50.32;100057.45;1727088;81;98704;-64
2022/08/16 11:13:22;;;;;;;7.97;6.00;;;;;;;29.00;50.09;100054.34;1726777;82;26049;-65
2022/08/16 11:15:48;;;;;;;12.50;6.85;;;;;;;29.14;49.97;100056.67;1724788;82;25841;-65
2022/08/16 11:18:14;;;;;;;14.53;9.45;;;;;;;29.30;49.39;100056.37;1721827;82;98716;-65
2022/08/16 11:20:43;;;;;;;12.18;5.97;;;;;;;29.31;49.04;100055.84;1730808;81;26121;-65